createdAt,value
2023-04-26T00:00:55.525Z,7.59
2023-04-26T00:05:57.768Z,7.60
2023-04-26T00:11:01.919Z,7.56
2023-04-26T00:16:04.242Z,7.41
2023-04-26T00:21:06.239Z,7.27
2023-04-26T00:26:08.288Z,7.23
2023-04-26T00:31:17.672Z,7.12
2023-04-26T00:36:19.736Z,7.00
2023-04-26T00:41:22.681Z,6.89
2023-04-26T00:46:24.610Z,6.85
2023-04-26T00:51:27.199Z,6.71
2023-04-26T00:56:30.796Z,6.60
2023-04-26T01:01:32.740Z,6.54
2023-04-26T01:06:36.003Z,6.37
2023-04-26T01:11:39.649Z,6.42
2023-04-26T01:16:41.866Z,6.44
2023-04-26T01:21:43.886Z,6.33
2023-04-26T01:26:46.513Z,6.23
2023-04-26T01:31:49.625Z,6.23
2023-04-26T01:36:51.369Z,6.23
2023-04-26T01:41:53.117Z,6.22
2023-04-26T01:46:54.833Z,6.20
2023-04-26T01:51:56.643Z,6.24
2023-04-26T01:56:59.239Z,6.34
2023-04-26T02:02:02.784Z,6.27
2023-04-26T02:07:04.628Z,6.22
2023-04-26T02:12:06.592Z,6.24
2023-04-26T02:17:09.067Z,6.25
2023-04-26T02:22:10.982Z,6.17
2023-04-26T02:27:15.936Z,6.15
2023-04-26T02:32:17.654Z,6.00
2023-04-26T02:37:19.448Z,5.99
2023-04-26T02:42:21.420Z,5.86
2023-04-26T02:47:23.281Z,5.73
2023-04-26T02:52:26.956Z,5.65
2023-04-26T02:57:28.650Z,5.63
2023-04-26T03:02:30.869Z,5.54
2023-04-26T03:07:33.087Z,5.55
2023-04-26T03:12:34.818Z,5.47
2023-04-26T03:17:38.117Z,5.34
2023-04-26T03:22:40.541Z,5.38
2023-04-26T03:27:43.279Z,5.30
2023-04-26T03:32:45.452Z,5.30
2023-04-26T03:37:47.424Z,5.23
2023-04-26T03:42:52.052Z,5.28
2023-04-26T03:47:54.312Z,5.23
2023-04-26T03:52:56.669Z,5.23
2023-04-26T03:57:58.422Z,5.28
2023-04-26T04:03:00.470Z,5.38
2023-04-26T04:08:02.314Z,5.89
2023-04-26T04:13:05.091Z,6.99
2023-04-26T04:18:07.203Z,7.76
2023-04-26T04:23:09.965Z,8.65
2023-04-26T04:28:13.038Z,8.73
2023-04-26T04:33:16.321Z,7.50
2023-04-26T04:38:18.395Z,6.80
2023-04-26T04:43:21.577Z,6.60
2023-04-26T04:48:23.652Z,6.56
2023-04-26T04:53:25.740Z,6.60
2023-04-26T04:58:27.874Z,6.74
2023-04-26T05:03:30.417Z,6.86
2023-04-26T05:08:37.948Z,6.93
2023-04-26T05:13:42.607Z,7.05
2023-04-26T05:18:45.247Z,7.32
2023-04-26T05:23:47.105Z,7.55
2023-04-26T05:28:49.053Z,7.86
2023-04-26T05:33:56.776Z,8.23
2023-04-26T05:39:06.241Z,8.81
2023-04-26T05:44:08.402Z,8.84
2023-04-26T05:49:10.408Z,9.20
2023-04-26T05:54:12.259Z,9.23
2023-04-26T05:59:14.838Z,9.38
2023-04-26T06:04:16.820Z,9.59
2023-04-26T06:09:41.677Z,9.98
2023-04-26T06:14:43.903Z,9.80
2023-04-26T06:19:50.769Z,10.04
2023-04-26T06:24:52.589Z,10.19
2023-04-26T06:29:54.418Z,10.27
2023-04-26T06:34:57.866Z,9.92
2023-04-26T06:39:59.821Z,10.16
2023-04-26T06:45:01.658Z,9.89
2023-04-26T06:50:04.953Z,10.31
2023-04-26T06:55:07.328Z,10.49
2023-04-26T07:00:09.835Z,10.42
2023-04-26T07:05:11.755Z,11.22
2023-04-26T07:10:14.105Z,10.39
2023-04-26T07:15:15.995Z,11.57
2023-04-26T07:20:20.856Z,11.58
2023-04-26T07:25:22.653Z,11.57
2023-04-26T07:30:24.390Z,11.49
2023-04-26T07:35:26.421Z,11.54
2023-04-26T07:40:29.351Z,11.09
2023-04-26T07:45:32.608Z,11.27
2023-04-26T07:50:34.544Z,11.17
2023-04-26T07:55:37.615Z,11.54
2023-04-26T08:00:40.086Z,11.88
2023-04-26T08:05:42.085Z,11.97
2023-04-26T08:10:43.965Z,11.54
2023-04-26T08:15:45.833Z,11.86
2023-04-26T08:20:47.594Z,12.30
2023-04-26T08:25:52.351Z,12.89
2023-04-26T08:30:54.270Z,12.43
2023-04-26T08:35:56.160Z,13.17
2023-04-26T08:41:03.138Z,13.61
2023-04-26T08:46:09.438Z,13.21
2023-04-26T08:51:13.717Z,13.43
2023-04-26T08:56:15.566Z,13.28
2023-04-26T09:01:19.989Z,12.75
2023-04-26T09:06:23.213Z,11.96
2023-04-26T09:11:25.295Z,11.71
2023-04-26T09:16:38.950Z,11.34
2023-04-26T09:21:45.491Z,11.62
2023-04-26T09:27:01.300Z,11.38
2023-04-26T09:32:03.887Z,11.82
2023-04-26T09:37:05.597Z,12.14
2023-04-26T09:42:08.324Z,12.00
2023-04-26T09:47:12.058Z,12.03
2023-04-26T09:52:14.528Z,10.95
2023-04-26T09:57:17.569Z,11.59
2023-04-26T10:02:27.495Z,12.06
2023-04-26T10:07:30.440Z,12.53
2023-04-26T10:12:32.196Z,13.33
2023-04-26T10:17:34.019Z,13.73
2023-04-26T10:22:43.589Z,14.20
2023-04-26T10:27:45.322Z,14.05
2023-04-26T10:33:07.410Z,14.35
2023-04-26T10:38:10.012Z,14.03
2023-04-26T10:43:11.998Z,14.21
2023-04-26T10:48:13.792Z,14.08
2023-04-26T10:53:15.705Z,13.94
2023-04-26T10:58:31.992Z,13.49
2023-04-26T11:03:34.376Z,13.47
2023-04-26T11:08:37.075Z,13.85
2023-04-26T11:13:43.593Z,13.70
2023-04-26T11:18:47.435Z,13.35
2023-04-26T11:23:55.675Z,13.51
2023-04-26T11:28:57.515Z,13.53
2023-04-26T11:34:05.486Z,13.01
2023-04-26T11:39:07.254Z,12.91
2023-04-26T11:44:11.868Z,13.00
2023-04-26T11:49:14.149Z,12.77
2023-04-26T11:54:32.476Z,12.04
2023-04-26T11:59:34.175Z,12.23
2023-04-26T12:04:37.554Z,12.74
2023-04-26T12:09:44.464Z,13.93
2023-04-26T12:14:49.878Z,14.60
2023-04-26T12:19:51.724Z,13.92
2023-04-26T12:25:05.089Z,15.14
2023-04-26T12:30:08.340Z,15.38
2023-04-26T12:35:10.559Z,15.09
2023-04-26T12:40:12.908Z,15.45
2023-04-26T12:45:14.873Z,14.83
2023-04-26T12:50:18.698Z,14.04
2023-04-26T12:55:21.285Z,13.02
2023-04-26T13:00:23.304Z,11.72
2023-04-26T13:05:25.544Z,11.93
2023-04-26T13:10:28.035Z,11.78
2023-04-26T13:15:30.077Z,10.86
2023-04-26T13:20:31.924Z,12.40
2023-04-26T13:25:33.698Z,12.63
2023-04-26T13:30:35.738Z,12.70
2023-04-26T13:35:37.581Z,12.38
2023-04-26T13:40:39.371Z,13.47
2023-04-26T13:45:41.113Z,13.64
2023-04-26T13:50:42.978Z,13.91
2023-04-26T13:55:44.712Z,13.77
2023-04-26T14:00:46.582Z,13.51
2023-04-26T14:05:48.449Z,13.22
2023-04-26T14:10:50.621Z,13.50
2023-04-26T14:15:52.461Z,13.05
2023-04-26T14:20:54.373Z,12.68
2023-04-26T14:25:56.146Z,12.25
2023-04-26T14:30:57.861Z,13.14
2023-04-26T14:35:59.708Z,13.04
2023-04-26T14:41:01.711Z,13.54
2023-04-26T14:46:03.617Z,14.90
2023-04-26T14:51:05.670Z,13.96
2023-04-26T14:56:08.324Z,14.93
2023-04-26T15:01:10.622Z,14.80
2023-04-26T15:06:12.552Z,14.48
2023-04-26T15:11:14.338Z,14.19
2023-04-26T15:36:37.434Z,12.76
2023-04-26T15:41:39.661Z,12.90
2023-04-26T15:46:41.712Z,13.06
2023-04-26T15:51:43.817Z,13.05
2023-04-26T15:56:48.736Z,13.02
2023-04-26T16:01:50.491Z,12.57
2023-04-26T16:06:52.298Z,12.54
2023-04-26T16:11:54.065Z,12.35
2023-04-26T16:16:55.969Z,12.51
2023-04-26T16:21:57.838Z,12.50
2023-04-26T16:26:59.663Z,12.42
2023-04-26T16:32:01.748Z,11.92
2023-04-26T16:37:03.560Z,11.88
2023-04-26T16:42:05.372Z,11.86
2023-04-26T16:47:07.311Z,11.86
2023-04-26T16:52:09.151Z,11.59
2023-04-26T16:57:11.962Z,11.62
2023-04-26T17:02:14.093Z,11.42
2023-04-26T17:07:16.492Z,11.71
2023-04-26T17:12:18.228Z,11.92
2023-04-26T17:17:19.905Z,11.77
2023-04-26T17:22:21.651Z,11.55
2023-04-26T17:27:24.856Z,11.30
2023-04-26T17:32:26.854Z,11.06
2023-04-26T17:37:28.742Z,10.91
2023-04-26T17:42:33.743Z,10.56
2023-04-26T17:47:35.677Z,10.35
2023-04-26T17:52:38.245Z,9.94
2023-04-26T17:57:40.035Z,9.68
2023-04-26T18:02:42.218Z,9.51
2023-04-26T18:07:47.455Z,9.50
2023-04-26T18:12:49.146Z,9.53
2023-04-26T18:17:51.121Z,9.40
2023-04-26T18:22:54.034Z,9.25
2023-04-26T18:27:55.778Z,9.21
2023-04-26T18:32:57.511Z,9.23
2023-04-26T18:37:59.235Z,9.18
2023-04-26T18:43:01.115Z,9.23
2023-04-26T18:48:03.060Z,9.27
2023-04-26T18:53:04.895Z,9.23
2023-04-26T18:58:06.641Z,9.13
2023-04-26T19:03:08.553Z,9.04
2023-04-26T19:08:10.630Z,8.91
2023-04-26T19:13:12.364Z,8.79
2023-04-26T19:18:14.160Z,8.74
2023-04-26T19:23:18.589Z,8.81
2023-04-26T19:28:20.617Z,8.90
2023-04-26T19:33:22.477Z,8.93
2023-04-26T19:38:25.053Z,8.93
2023-04-26T19:43:26.825Z,8.85
2023-04-26T19:48:28.643Z,8.85
2023-04-26T19:53:30.409Z,8.75
2023-04-26T19:58:32.543Z,8.64
2023-04-26T20:03:34.569Z,8.55
2023-04-26T20:08:36.451Z,8.37
2023-04-26T20:13:38.175Z,8.22
2023-04-26T20:18:40.015Z,8.07
2023-04-26T20:23:42.618Z,7.98
2023-04-26T20:28:45.620Z,8.05
2023-04-26T20:33:47.394Z,8.08
2023-04-26T20:38:49.188Z,8.18
2023-04-26T20:43:54.352Z,8.21
2023-04-26T20:48:56.137Z,8.16
2023-04-26T20:53:57.900Z,8.07
2023-04-26T20:58:59.700Z,8.13
2023-04-26T21:04:01.710Z,8.18
2023-04-26T21:09:04.849Z,8.05
2023-04-26T21:14:07.247Z,8.00
2023-04-26T21:19:09.752Z,8.09
2023-04-26T21:24:11.943Z,8.13
2023-04-26T21:29:13.752Z,8.17
2023-04-26T21:34:15.805Z,8.08
2023-04-26T21:39:18.333Z,7.97
2023-04-26T21:44:20.155Z,8.04
2023-04-26T21:49:22.076Z,8.06
2023-04-26T21:54:24.869Z,8.05
2023-04-26T21:59:28.815Z,8.02
2023-04-26T22:04:30.939Z,7.99
2023-04-26T22:09:32.861Z,7.98
2023-04-26T22:14:34.614Z,7.98
2023-04-26T22:19:36.544Z,7.96
2023-04-26T22:24:38.476Z,7.94
2023-04-26T22:29:40.362Z,7.92
2023-04-26T22:34:43.763Z,7.88
2023-04-26T22:39:46.723Z,7.81
2023-04-26T22:44:51.529Z,7.80
2023-04-26T22:49:53.283Z,7.74
2023-04-26T22:54:55.247Z,7.70
2023-04-26T22:59:57.371Z,7.63
2023-04-26T23:04:59.212Z,7.55
2023-04-26T23:10:01.160Z,7.52
2023-04-26T23:15:05.126Z,7.57
2023-04-26T23:20:12.730Z,7.59
2023-04-26T23:25:14.562Z,7.57
2023-04-26T23:30:16.749Z,7.57
2023-04-26T23:35:18.513Z,7.56
2023-04-26T23:40:20.604Z,7.55
2023-04-26T23:45:23.747Z,7.53
2023-04-26T23:50:26.029Z,7.53
2023-04-26T23:55:27.960Z,7.53
